createdAt,value
2018-12-29T00:00:55.343Z,91.16
2018-12-29T00:03:24.635Z,91.31
2018-12-29T00:05:53.947Z,91.27
2018-12-29T00:08:23.230Z,91.27
2018-12-29T00:10:52.537Z,91.17
2018-12-29T00:13:21.828Z,91.47
2018-12-29T00:15:51.074Z,91.26
2018-12-29T00:18:20.411Z,91.14
2018-12-29T00:20:49.679Z,91.33
2018-12-29T00:23:19.065Z,91.47
2018-12-29T00:25:48.332Z,91.48
2018-12-29T00:28:17.651Z,91.40
2018-12-29T00:30:46.859Z,91.49
2018-12-29T00:33:16.164Z,91.46
2018-12-29T00:35:45.406Z,91.39
2018-12-29T00:38:14.711Z,90.71
2018-12-29T00:40:44.179Z,90.73
2018-12-29T00:43:13.526Z,90.98
2018-12-29T00:45:42.888Z,91.11
2018-12-29T00:48:12.178Z,91.02
2018-12-29T00:50:41.517Z,90.65
2018-12-29T00:53:10.818Z,90.80
2018-12-29T00:55:40.088Z,90.70
2018-12-29T00:58:09.337Z,90.80
2018-12-29T01:00:38.608Z,90.62
2018-12-29T01:03:07.889Z,90.28
2018-12-29T01:05:37.192Z,90.50
2018-12-29T01:08:06.433Z,90.80
2018-12-29T01:10:35.676Z,90.83
2018-12-29T01:13:04.955Z,90.99
2018-12-29T01:15:34.202Z,90.87
2018-12-29T01:18:03.608Z,90.87
2018-12-29T01:20:32.938Z,91.02
2018-12-29T01:23:02.218Z,90.83
2018-12-29T01:25:31.504Z,90.69
2018-12-29T01:28:00.821Z,90.81
2018-12-29T01:30:30.094Z,90.85
2018-12-29T01:32:59.382Z,90.80
2018-12-29T01:35:28.624Z,91.04
2018-12-29T01:37:57.896Z,91.13
2018-12-29T01:40:27.167Z,90.98
2018-12-29T01:42:56.428Z,90.97
2018-12-29T01:45:25.732Z,91.06
2018-12-29T01:47:55.029Z,91.35
2018-12-29T01:50:24.328Z,91.50
2018-12-29T01:52:53.598Z,91.58
2018-12-29T01:55:22.892Z,91.54
2018-12-29T01:57:52.140Z,91.44
2018-12-29T02:00:21.426Z,91.37
2018-12-29T02:02:50.683Z,91.44
2018-12-29T02:05:19.962Z,91.49
2018-12-29T02:07:49.211Z,91.61
2018-12-29T02:10:18.492Z,91.46
2018-12-29T02:12:47.764Z,91.43
2018-12-29T02:15:17.106Z,91.18
2018-12-29T02:17:46.383Z,91.33
2018-12-29T02:20:15.633Z,91.47
2018-12-29T02:22:44.999Z,91.48
2018-12-29T02:25:14.284Z,91.56
2018-12-29T02:27:43.578Z,91.56
2018-12-29T02:30:12.897Z,91.40
2018-12-29T02:32:42.237Z,91.62
2018-12-29T02:35:11.617Z,91.75
2018-12-29T02:37:40.936Z,91.35
2018-12-29T02:40:10.299Z,91.56
2018-12-29T02:42:39.602Z,91.73
2018-12-29T02:45:08.844Z,91.45
2018-12-29T02:47:38.099Z,91.55
2018-12-29T02:50:07.384Z,91.40
2018-12-29T02:52:36.657Z,91.26
2018-12-29T02:55:05.962Z,91.20
2018-12-29T02:57:35.267Z,91.24
2018-12-29T03:00:04.560Z,91.18
2018-12-29T03:02:33.808Z,91.12
2018-12-29T03:05:03.113Z,91.39
2018-12-29T03:07:32.362Z,91.33
2018-12-29T03:10:01.669Z,91.36
2018-12-29T03:12:30.902Z,91.27
2018-12-29T03:15:00.286Z,91.23
2018-12-29T03:17:29.598Z,91.21
2018-12-29T03:19:58.884Z,91.04
2018-12-29T03:22:28.236Z,91.30
2018-12-29T03:24:57.611Z,91.09
2018-12-29T03:27:26.931Z,91.14
2018-12-29T03:29:56.212Z,91.12
2018-12-29T03:32:25.548Z,90.78
2018-12-29T03:34:54.924Z,89.56
2018-12-29T03:37:24.206Z,89.81
2018-12-29T03:39:53.678Z,89.95
2018-12-29T03:42:22.945Z,89.63
2018-12-29T03:44:52.183Z,89.50
2018-12-29T03:47:21.440Z,89.33
2018-12-29T03:49:50.678Z,89.32
2018-12-29T03:52:19.924Z,88.94
2018-12-29T03:54:49.186Z,89.04
2018-12-29T03:57:18.416Z,89.12
2018-12-29T03:59:47.688Z,89.13
2018-12-29T04:02:16.913Z,88.67
2018-12-29T04:04:46.268Z,88.95
2018-12-29T04:07:15.654Z,89.14
2018-12-29T04:09:45.059Z,89.08
2018-12-29T04:12:19.668Z,88.81
2018-12-29T04:14:48.986Z,88.82
2018-12-29T04:17:18.258Z,89.13
2018-12-29T04:19:47.582Z,88.76
2018-12-29T04:22:16.870Z,88.97
2018-12-29T04:24:46.192Z,89.05
2018-12-29T04:27:15.572Z,89.10
2018-12-29T04:29:44.968Z,88.92
2018-12-29T04:32:14.304Z,89.04
2018-12-29T04:34:43.577Z,88.76
2018-12-29T04:37:12.898Z,88.80
2018-12-29T04:39:42.171Z,88.65
2018-12-29T04:42:11.443Z,88.64
2018-12-29T04:44:40.791Z,88.79
2018-12-29T04:47:10.075Z,88.69
2018-12-29T04:49:39.309Z,88.83
2018-12-29T04:52:08.591Z,88.68
2018-12-29T04:54:37.884Z,88.80
2018-12-29T04:57:07.124Z,88.65
2018-12-29T04:59:36.380Z,88.79
2018-12-29T05:02:05.640Z,88.70
2018-12-29T05:04:34.923Z,88.27
2018-12-29T05:07:04.190Z,88.62
2018-12-29T05:09:33.459Z,88.76
2018-12-29T05:12:02.717Z,88.62
2018-12-29T05:14:31.972Z,88.43
2018-12-29T05:17:01.283Z,88.09
2018-12-29T05:19:30.568Z,88.28
2018-12-29T05:21:59.818Z,88.59
2018-12-29T05:24:29.064Z,88.63
2018-12-29T05:26:58.365Z,88.83
2018-12-29T05:29:27.623Z,88.92
2018-12-29T05:31:56.886Z,88.77
2018-12-29T05:34:26.174Z,88.83
2018-12-29T05:36:55.457Z,88.94
2018-12-29T05:39:24.727Z,88.76
2018-12-29T05:41:53.981Z,88.77
2018-12-29T05:44:25.685Z,88.94
2018-12-29T05:46:52.501Z,89.01
2018-12-29T05:49:21.735Z,89.29
2018-12-29T05:51:52.123Z,89.35
2018-12-29T05:54:21.311Z,89.46
2018-12-29T05:56:50.521Z,89.39
2018-12-29T05:59:19.777Z,89.11
2018-12-29T06:01:49.012Z,89.08
2018-12-29T06:04:18.273Z,89.16
2018-12-29T06:06:47.611Z,88.92
2018-12-29T06:09:16.887Z,89.08
2018-12-29T06:11:46.163Z,88.91
2018-12-29T06:14:15.399Z,88.64
2018-12-29T06:16:44.659Z,88.45
2018-12-29T06:19:14.007Z,87.96
2018-12-29T06:21:43.270Z,87.78
2018-12-29T06:24:12.608Z,87.90
2018-12-29T06:26:41.879Z,87.87
2018-12-29T06:29:11.124Z,88.15
2018-12-29T06:31:40.434Z,88.18
2018-12-29T06:34:09.646Z,88.39
2018-12-29T06:36:38.975Z,88.22
2018-12-29T06:39:08.515Z,88.16
2018-12-29T06:41:37.785Z,88.23
2018-12-29T06:44:07.047Z,88.08
2018-12-29T06:46:36.291Z,87.94
2018-12-29T06:49:05.565Z,87.68
2018-12-29T06:51:34.807Z,87.89
2018-12-29T06:54:04.147Z,87.93
2018-12-29T06:56:33.369Z,88.18
2018-12-29T06:59:02.750Z,88.56
2018-12-29T07:01:32.023Z,88.67
2018-12-29T07:04:01.285Z,88.90
2018-12-29T07:06:30.519Z,89.11
2018-12-29T07:08:59.805Z,89.44
2018-12-29T07:11:29.129Z,89.57
2018-12-29T07:13:58.391Z,89.70
2018-12-29T07:16:27.695Z,90.01
2018-12-29T07:18:56.983Z,90.04
2018-12-29T07:21:26.273Z,90.08
2018-12-29T07:23:55.673Z,90.13
2018-12-29T07:26:25.003Z,90.38
2018-12-29T07:28:54.280Z,90.56
2018-12-29T07:31:23.677Z,90.78
2018-12-29T07:33:52.941Z,91.14
2018-12-29T07:36:22.267Z,91.22
2018-12-29T07:38:51.548Z,91.58
2018-12-29T07:41:20.835Z,91.26
2018-12-29T07:43:50.146Z,91.17
2018-12-29T07:46:19.553Z,91.24
2018-12-29T07:48:48.871Z,91.02
2018-12-29T07:51:18.167Z,91.07
2018-12-29T07:53:47.484Z,90.79
2018-12-29T07:56:16.846Z,90.66
2018-12-29T07:58:46.178Z,90.71
2018-12-29T08:01:15.452Z,90.80
2018-12-29T08:03:44.858Z,90.90
2018-12-29T08:06:14.214Z,90.83
2018-12-29T08:08:43.481Z,90.53
2018-12-29T08:11:12.786Z,90.69
2018-12-29T08:13:42.080Z,90.54
2018-12-29T08:16:11.412Z,90.31
2018-12-29T08:18:40.700Z,90.24
2018-12-29T08:21:09.998Z,90.42
2018-12-29T08:23:39.241Z,90.21
2018-12-29T08:26:08.590Z,90.15
2018-12-29T08:28:37.846Z,89.97
2018-12-29T08:31:07.159Z,89.98
2018-12-29T08:33:36.464Z,89.77
2018-12-29T08:36:05.738Z,90.10
2018-12-29T08:38:35.010Z,89.64
2018-12-29T08:41:04.288Z,89.19
2018-12-29T08:43:33.552Z,89.21
2018-12-29T08:46:02.864Z,89.35
2018-12-29T08:48:32.192Z,89.44
2018-12-29T08:51:01.604Z,89.47
2018-12-29T08:53:30.898Z,89.43
2018-12-29T08:56:00.168Z,89.42
2018-12-29T08:58:29.440Z,89.45
2018-12-29T09:00:58.703Z,88.99
2018-12-29T09:03:28.023Z,89.41
2018-12-29T09:05:57.279Z,89.46
2018-12-29T09:08:26.529Z,90.72
2018-12-29T09:10:55.788Z,90.69
2018-12-29T09:13:25.104Z,90.54
2018-12-29T09:15:54.429Z,91.04
2018-12-29T09:18:23.673Z,88.20
2018-12-29T09:20:53.040Z,88.36
2018-12-29T09:23:22.394Z,88.45
2018-12-29T09:25:51.690Z,88.72
2018-12-29T09:28:20.943Z,88.79
2018-12-29T09:30:50.235Z,89.02
2018-12-29T09:33:19.493Z,89.25
2018-12-29T09:35:48.799Z,89.26
2018-12-29T09:38:18.083Z,89.23
2018-12-29T09:40:47.345Z,89.15
2018-12-29T09:43:16.712Z,89.31
2018-12-29T09:45:45.956Z,89.48
2018-12-29T09:48:15.285Z,89.45
2018-12-29T09:50:44.598Z,89.42
2018-12-29T09:53:13.887Z,89.17
2018-12-29T09:55:43.160Z,89.11
2018-12-29T09:58:12.641Z,88.60
2018-12-29T10:00:41.910Z,88.51
2018-12-29T10:03:11.173Z,88.17
2018-12-29T10:05:40.502Z,88.29
2018-12-29T10:08:09.806Z,87.98
2018-12-29T10:10:39.101Z,87.16
2018-12-29T10:13:08.362Z,86.66
2018-12-29T10:15:37.681Z,86.21
2018-12-29T10:18:07.019Z,84.52
2018-12-29T10:20:36.319Z,84.51
2018-12-29T10:23:05.594Z,84.75
2018-12-29T10:25:34.874Z,84.52
2018-12-29T10:28:04.131Z,84.97
2018-12-29T10:30:33.441Z,84.91
2018-12-29T10:33:02.681Z,85.21
2018-12-29T10:35:32.088Z,84.77
2018-12-29T10:38:01.410Z,84.55
2018-12-29T10:40:30.677Z,84.42
2018-12-29T10:42:59.943Z,84.00
2018-12-29T10:45:29.328Z,84.00
2018-12-29T10:47:58.663Z,83.33
2018-12-29T10:50:27.956Z,83.53
2018-12-29T10:52:57.166Z,84.18
2018-12-29T10:55:26.545Z,84.08
2018-12-29T10:57:55.807Z,83.51
2018-12-29T11:00:25.092Z,83.87
2018-12-29T11:02:54.460Z,84.27
2018-12-29T11:05:23.726Z,84.16
2018-12-29T11:07:53.033Z,83.68
2018-12-29T11:10:22.340Z,83.91
2018-12-29T11:12:51.728Z,83.89
2018-12-29T11:15:21.056Z,83.11
2018-12-29T11:17:50.324Z,83.51
2018-12-29T11:20:19.665Z,83.92
2018-12-29T11:22:49.054Z,83.67
2018-12-29T11:25:18.386Z,83.01
2018-12-29T11:27:47.642Z,83.06
2018-12-29T11:30:16.954Z,82.98
2018-12-29T11:32:46.375Z,82.41
2018-12-29T11:35:15.760Z,82.68
2018-12-29T11:37:45.043Z,82.84
2018-12-29T11:40:14.317Z,82.58
2018-12-29T11:42:43.603Z,82.39
2018-12-29T11:45:13.050Z,82.01
2018-12-29T11:47:49.592Z,81.96
2018-12-29T11:50:11.660Z,81.85
2018-12-29T11:52:41.036Z,82.16
2018-12-29T11:55:10.304Z,82.44
2018-12-29T11:57:39.761Z,82.97
2018-12-29T12:00:09.690Z,83.03
2018-12-29T12:02:39.008Z,83.23
2018-12-29T12:05:08.278Z,83.48
2018-12-29T12:07:37.622Z,83.40
2018-12-29T12:10:06.984Z,83.81
2018-12-29T12:12:36.561Z,83.88
2018-12-29T12:15:06.110Z,83.68
2018-12-29T12:17:35.370Z,83.13
2018-12-29T12:20:05.178Z,82.86
2018-12-29T12:22:34.448Z,82.99
2018-12-29T12:25:03.774Z,82.89
2018-12-29T12:27:33.156Z,83.24
2018-12-29T12:30:02.449Z,83.19
2018-12-29T12:32:31.896Z,83.25
2018-12-29T12:35:01.272Z,83.62
2018-12-29T12:37:30.562Z,83.34
2018-12-29T12:39:59.904Z,83.43
2018-12-29T12:42:29.190Z,83.62
2018-12-29T12:44:58.638Z,83.51
2018-12-29T12:47:27.974Z,82.60
2018-12-29T12:49:57.658Z,82.47
2018-12-29T12:52:26.993Z,82.58
2018-12-29T12:54:56.362Z,82.29
2018-12-29T12:57:25.706Z,81.96
2018-12-29T12:59:55.068Z,82.23
2018-12-29T13:02:24.475Z,82.17
2018-12-29T13:04:54.374Z,82.44
2018-12-29T13:07:23.672Z,82.21
2018-12-29T13:09:52.983Z,82.30
2018-12-29T13:12:22.306Z,82.41
2018-12-29T13:14:51.586Z,82.37
2018-12-29T13:17:20.910Z,82.37
2018-12-29T13:19:50.210Z,82.33
2018-12-29T13:22:19.479Z,82.47
2018-12-29T13:24:48.814Z,82.39
2018-12-29T13:27:18.204Z,82.57
2018-12-29T13:29:47.526Z,82.83
2018-12-29T13:32:16.833Z,83.37
2018-12-29T13:34:46.439Z,83.05
2018-12-29T13:37:15.725Z,83.40
2018-12-29T13:39:45.131Z,83.71
2018-12-29T13:42:14.409Z,83.55
2018-12-29T13:44:43.739Z,83.67
2018-12-29T13:47:13.050Z,83.19
2018-12-29T13:49:42.339Z,82.96
2018-12-29T13:52:11.629Z,83.37
2018-12-29T13:54:41.135Z,83.47
2018-12-29T13:57:13.411Z,83.19
2018-12-29T13:59:42.660Z,83.17
2018-12-29T14:02:12.022Z,83.30
2018-12-29T14:04:41.266Z,83.23
2018-12-29T14:07:13.892Z,83.21
2018-12-29T14:09:43.161Z,82.46
2018-12-29T14:12:12.505Z,82.38
2018-12-29T14:14:44.671Z,82.56
2018-12-29T14:17:11.192Z,82.96
2018-12-29T14:19:40.467Z,83.37
2018-12-29T14:22:09.755Z,83.74
2018-12-29T14:24:39.018Z,84.02
2018-12-29T14:27:08.316Z,84.07
2018-12-29T14:29:37.680Z,84.22
2018-12-29T14:32:06.969Z,84.42
2018-12-29T14:34:36.273Z,84.45
2018-12-29T14:37:05.559Z,84.34
2018-12-29T14:39:35.024Z,83.85
2018-12-29T14:42:04.383Z,84.12
2018-12-29T14:44:33.703Z,84.16
2018-12-29T14:47:03.091Z,84.10
2018-12-29T14:49:32.522Z,83.92
2018-12-29T14:52:01.787Z,83.78
2018-12-29T14:54:31.391Z,83.32
2018-12-29T14:57:00.668Z,83.28
2018-12-29T14:59:29.952Z,83.18
2018-12-29T15:01:59.313Z,83.11
2018-12-29T15:04:28.601Z,82.61
2018-12-29T15:06:57.893Z,82.67
2018-12-29T15:09:27.335Z,82.42
2018-12-29T15:11:56.532Z,82.12
2018-12-29T15:14:25.802Z,82.08
2018-12-29T15:16:55.161Z,82.10
2018-12-29T15:19:24.508Z,81.98
2018-12-29T15:21:53.770Z,82.00
2018-12-29T15:24:23.103Z,81.93
2018-12-29T15:26:52.444Z,81.86
2018-12-29T15:29:21.856Z,81.49
2018-12-29T15:31:51.171Z,81.35
2018-12-29T15:34:20.520Z,81.28
2018-12-29T15:36:49.888Z,82.20
2018-12-29T15:39:19.171Z,83.27
2018-12-29T15:41:48.586Z,83.85
2018-12-29T15:44:17.937Z,84.69
2018-12-29T15:46:47.283Z,85.51
2018-12-29T15:49:16.622Z,86.51
2018-12-29T15:51:45.978Z,87.01
2018-12-29T15:54:15.251Z,87.85
2018-12-29T15:56:44.551Z,88.41
2018-12-29T15:59:13.898Z,88.87
2018-12-29T16:01:43.185Z,89.54
2018-12-29T16:04:12.452Z,89.95
2018-12-29T16:06:41.844Z,89.74
2018-12-29T16:09:11.170Z,90.01
2018-12-29T16:11:40.559Z,90.38
2018-12-29T16:14:09.869Z,90.79
2018-12-29T16:16:39.106Z,90.93
2018-12-29T16:19:08.476Z,91.42
2018-12-29T16:21:37.761Z,91.40
2018-12-29T16:24:07.077Z,91.41
2018-12-29T16:26:36.484Z,91.44
2018-12-29T16:29:05.839Z,91.64
2018-12-29T16:31:35.155Z,91.74
2018-12-29T16:34:04.478Z,91.95
2018-12-29T16:36:33.899Z,92.18
2018-12-29T16:39:03.176Z,92.12
2018-12-29T16:41:32.498Z,92.47
2018-12-29T16:44:01.778Z,92.60
2018-12-29T16:46:31.065Z,92.59
2018-12-29T16:49:06.783Z,92.25
2018-12-29T16:51:29.771Z,92.62
2018-12-29T16:53:59.068Z,92.88
2018-12-29T16:56:28.373Z,92.85
2018-12-29T16:58:57.664Z,92.74
2018-12-29T17:01:27.098Z,92.79
2018-12-29T17:03:56.393Z,93.00
2018-12-29T17:06:25.803Z,93.13
2018-12-29T17:08:55.126Z,93.13
2018-12-29T17:11:24.439Z,93.39
2018-12-29T17:13:53.772Z,93.51
2018-12-29T17:16:23.106Z,93.24
2018-12-29T17:18:52.401Z,93.68
2018-12-29T17:21:21.674Z,93.46
2018-12-29T17:23:50.964Z,93.30
2018-12-29T17:26:20.200Z,93.43
2018-12-29T17:28:49.538Z,93.05
2018-12-29T17:31:18.900Z,93.04
2018-12-29T17:33:48.184Z,92.99
2018-12-29T17:36:17.520Z,92.53
2018-12-29T17:38:46.824Z,92.14
2018-12-29T17:41:16.096Z,92.37
2018-12-29T17:43:45.517Z,92.38
2018-12-29T17:46:14.805Z,91.85
2018-12-29T17:48:44.066Z,91.60
2018-12-29T17:51:13.368Z,91.87
2018-12-29T17:53:47.987Z,91.80
2018-12-29T17:56:11.894Z,92.28
2018-12-29T17:58:41.160Z,92.43
2018-12-29T18:01:10.424Z,92.55
2018-12-29T18:03:39.713Z,92.64
2018-12-29T18:06:10.834Z,92.06
2018-12-29T18:08:38.664Z,92.15
2018-12-29T18:11:07.940Z,92.77
2018-12-29T18:13:37.335Z,92.85
2018-12-29T18:16:06.656Z,92.82
2018-12-29T18:18:35.934Z,92.98
2018-12-29T18:21:05.194Z,93.23
2018-12-29T18:23:34.514Z,93.33
2018-12-29T18:26:03.776Z,92.98
2018-12-29T18:28:33.066Z,93.04
2018-12-29T18:31:02.353Z,93.22
2018-12-29T18:33:37.181Z,92.88
2018-12-29T18:36:00.971Z,93.11
2018-12-29T18:38:30.305Z,93.29
2018-12-29T18:40:59.575Z,93.02
2018-12-29T18:43:28.845Z,93.18
2018-12-29T18:45:58.250Z,93.49
2018-12-29T18:48:27.569Z,93.63
2018-12-29T18:50:56.892Z,93.31
2018-12-29T18:53:26.200Z,93.33
2018-12-29T18:55:55.501Z,93.38
2018-12-29T18:58:24.774Z,94.30
2018-12-29T19:00:54.044Z,93.82
2018-12-29T19:03:23.289Z,93.61
2018-12-29T19:05:52.597Z,93.75
2018-12-29T19:08:21.882Z,94.00
2018-12-29T19:10:51.176Z,93.37
2018-12-29T19:13:20.545Z,93.66
2018-12-29T19:15:49.905Z,93.80
2018-12-29T19:18:19.224Z,93.38
2018-12-29T19:20:48.573Z,93.60
2018-12-29T19:23:17.875Z,93.38
2018-12-29T19:25:47.203Z,93.57
2018-12-29T19:28:16.492Z,93.10
2018-12-29T19:30:45.749Z,93.34
2018-12-29T19:33:15.094Z,93.03
2018-12-29T19:35:44.396Z,92.88
2018-12-29T19:38:13.688Z,93.04
2018-12-29T19:40:42.993Z,93.29
2018-12-29T19:43:12.331Z,93.09
2018-12-29T19:45:41.656Z,92.71
2018-12-29T19:48:10.970Z,92.86
2018-12-29T19:50:40.254Z,92.55
2018-12-29T19:53:09.535Z,92.07
2018-12-29T19:55:38.834Z,92.14
2018-12-29T19:58:08.130Z,92.51
2018-12-29T20:00:37.424Z,93.09
2018-12-29T20:03:06.686Z,92.95
2018-12-29T20:05:36.043Z,92.79
2018-12-29T20:08:05.335Z,92.92
2018-12-29T20:10:34.685Z,93.03
2018-12-29T20:13:03.979Z,92.54
2018-12-29T20:15:33.405Z,92.67
2018-12-29T20:18:02.687Z,92.79
2018-12-29T20:20:31.969Z,92.97
2018-12-29T20:23:01.239Z,92.63
2018-12-29T20:25:31.062Z,92.42
2018-12-29T20:28:00.500Z,92.65
2018-12-29T20:30:29.726Z,92.53
2018-12-29T20:32:59.304Z,91.87
2018-12-29T20:35:28.505Z,92.53
2018-12-29T20:37:57.868Z,92.25
2018-12-29T20:40:27.204Z,92.21
2018-12-29T20:42:56.557Z,91.96
2018-12-29T20:45:25.874Z,92.27
2018-12-29T20:47:55.192Z,91.89
2018-12-29T20:50:24.473Z,91.10
2018-12-29T20:52:53.811Z,90.80
2018-12-29T20:55:23.115Z,89.72
2018-12-29T20:57:52.444Z,89.22
2018-12-29T21:00:21.738Z,89.77
2018-12-29T21:02:51.354Z,89.04
2018-12-29T21:05:20.631Z,88.62
2018-12-29T21:07:49.972Z,88.11
2018-12-29T21:10:19.254Z,87.24
2018-12-29T21:12:48.679Z,87.41
2018-12-29T21:15:17.926Z,87.18
2018-12-29T21:17:47.356Z,87.97
2018-12-29T21:20:17.542Z,88.93
2018-12-29T21:22:46.255Z,89.19
2018-12-29T21:25:15.602Z,89.46
2018-12-29T21:27:44.898Z,89.93
2018-12-29T21:30:14.183Z,89.96
2018-12-29T21:32:43.493Z,90.34
2018-12-29T21:35:12.830Z,90.22
2018-12-29T21:37:42.108Z,90.51
2018-12-29T21:40:11.400Z,90.89
2018-12-29T21:42:40.696Z,90.92
2018-12-29T21:45:10.047Z,91.10
2018-12-29T21:47:39.414Z,91.18
2018-12-29T21:50:10.460Z,91.22
2018-12-29T21:52:38.008Z,90.83
2018-12-29T21:55:07.332Z,91.33
2018-12-29T21:57:36.620Z,91.62
2018-12-29T22:00:06.407Z,91.69
2018-12-29T22:02:35.667Z,91.91
2018-12-29T22:05:05.009Z,91.99
2018-12-29T22:07:34.281Z,91.90
2018-12-29T22:10:04.035Z,92.23
2018-12-29T22:12:33.336Z,92.19
2018-12-29T22:15:02.687Z,92.45
2018-12-29T22:17:31.991Z,92.52
2018-12-29T22:20:01.273Z,92.67
2018-12-29T22:22:30.499Z,92.82
2018-12-29T22:24:59.796Z,92.86
2018-12-29T22:27:29.202Z,92.85
2018-12-29T22:29:58.478Z,92.78
2018-12-29T22:32:27.805Z,92.87
2018-12-29T22:34:57.076Z,92.97
2018-12-29T22:37:26.406Z,93.31
2018-12-29T22:39:55.733Z,93.57
2018-12-29T22:42:24.965Z,93.56
2018-12-29T22:44:54.239Z,93.64
2018-12-29T22:47:23.601Z,93.60
2018-12-29T22:49:52.869Z,93.48
2018-12-29T22:52:22.222Z,93.36
2018-12-29T22:54:51.508Z,93.33
2018-12-29T22:57:20.853Z,93.40
2018-12-29T22:59:50.211Z,93.26
2018-12-29T23:02:20.029Z,93.35
2018-12-29T23:04:49.320Z,93.19
2018-12-29T23:07:18.650Z,93.05
2018-12-29T23:09:47.929Z,93.09
2018-12-29T23:12:17.253Z,93.23
2018-12-29T23:14:46.523Z,93.20
2018-12-29T23:17:16.243Z,93.38
2018-12-29T23:19:45.957Z,93.50
2018-12-29T23:22:14.863Z,93.58
2018-12-29T23:24:44.122Z,93.60
2018-12-29T23:27:13.449Z,93.61
2018-12-29T23:29:42.769Z,93.93
2018-12-29T23:32:12.038Z,93.82
2018-12-29T23:34:41.371Z,93.96
2018-12-29T23:37:10.655Z,94.21
2018-12-29T23:39:40.011Z,94.16
2018-12-29T23:42:09.239Z,94.11
2018-12-29T23:44:38.531Z,94.23
2018-12-29T23:47:07.852Z,94.25
2018-12-29T23:49:37.307Z,94.27
2018-12-29T23:52:06.576Z,94.30
2018-12-29T23:54:35.839Z,94.11
2018-12-29T23:57:05.173Z,94.02
2018-12-29T23:59:34.454Z,94.20
